Valleyfield

CWVE · Quebec, Kanada

Historia METAR CWVE · Valleyfield

Poniżej widzisz METAR-y z ostatnich kilku dni. Wybierz rok, aby przeglądać starsze METAR-y, począwszy od roku 2007.

23 maja 2024

Czas Kod Pogoda Temp. Widoczność Sufit Wiatr METAR/SPECI
23:00
V
19 °C 15 mi - 220° 220° 11 kt METAR CYUL 240300Z 22011KT 15SM FEW240 19/10 A2972 RMK CI1 SLP066 DENSITY ALT 900FT
22:00
V
21 °C 15 mi - 240° 240° 13 kt METAR CYUL 240200Z 24013KT 15SM SKC 21/10 A2974 RMK SLP072 DENSITY ALT 1100FT
21:00
V
22 °C 15 mi - 250° 250° 12 - 18 kt METAR CYUL 240100Z 25012G18KT 15SM FEW070 FEW250 22/10 A2973 RMK AC1CI1 AC TR SLP071 DENSITY ALT 1200FT
20:00
V
23 °C 30 mi - 250° 250° 15 - 24 kt METAR CYUL 240000Z 25015G24KT 30SM FEW060 SCT250 23/10 A2973 RMK SC1CI3 SC TR SLP071 DENSITY ALT 1300FT
19:00
V
24 °C 30 mi - 240° 240° 14 - 21 kt METAR CYUL 232300Z 24014G21KT 30SM FEW060 FEW250 24/11 A2972 RMK SC1CI2 SC TR SLP066 DENSITY ALT 1500FT
18:00
V
25 °C 30 mi - 240° 240° 16 - 24 kt METAR CYUL 232200Z 24016G24KT 30SM FEW060 FEW250 25/12 A2971 RMK SC1CI1 SC TR CI TR SLP064 DENSITY ALT 1500FT
17:00
V
25 °C 30 mi - 240° 240° 18 - 25 kt METAR CYUL 232100Z 24018G25KT 30SM FEW060 FEW250 25/12 A2972 RMK SC1CI1 SC TR CI TR SLP066 DENSITY ALT 1500FT
16:00
V
25 °C 30 mi - 230° 230° 16 - 25 kt METAR CYUL 232000Z 23016G25KT 30SM FEW055 FEW250 25/12 A2973 RMK SC1CI1 SC TR CI TR SLP068 DENSITY ALT 1500FT
15:00
V
24 °C 30 mi - 230° 230° 18 kt METAR CYUL 231900Z 23018KT 30SM FEW055 FEW250 24/12 A2974 RMK SC1CI1 SC TR CI TR SLP073 DENSITY ALT 1500FT
14:00
V
24 °C 30 mi - 220° 220° 16 - 23 kt METAR CYUL 231800Z 22016G23KT 30SM FEW055 FEW160 FEW250 24/12 A2976 RMK SC1AC1CI2 SC TR AC TR SLP079 DENSITY ALT 1400FT
13:00
V
23 °C 30 mi 25.000 ft 230° 230° 17 - 22 kt METAR CYUL 231700Z 23017G22KT 30SM FEW052 FEW170 BKN250 23/12 A2978 RMK SC1AC1CI4 AC TR SLP086 DENSITY ALT 1200FT
12:00
V
22 °C 30 mi - 230° 230° 15 - 21 kt METAR CYUL 231600Z 23015G21KT 30SM FEW042 FEW170 SCT250 22/14 A2980 RMK SC1AC1CI4 SC TR AC TR SLP093 DENSITY ALT 1200FT
11:00
V
22 °C 15 mi 25.000 ft 260° 260° 13 kt METAR CYUL 231500Z 26013KT 15SM FEW032 FEW150 BKN250 22/14 A2981 RMK SC1AC2CI4 SC TR SLP096 DENSITY ALT 1100FT
10:00
V
20 °C 15 mi 25.000 ft 250° 250° 13 - 21 kt METAR CYUL 231400Z 25013G21KT 15SM FEW025 SCT160 BKN250 20/15 A2979 RMK CU1AC3CI4 CU TR SLP088 DENSITY ALT 1000FT
09:00
V
21 °C 15 mi 18.000 ft 270° 270° 17 kt METAR CYUL 231300Z 27017KT 15SM SCT023 BKN180 OVC240 21/16 A2977 RMK SC4AC3CI1 SLP084 DENSITY ALT 1000FT
08:00
V
21 °C 15 mi 16.000 ft 260° 260° 11 - 22 kt METAR CYUL 231200Z 26011G22KT 15SM FEW025 OVC160 21/17 A2974 RMK CF1AC8 CF TR SLP073 DENSITY ALT 1100FT
07:00
V
21 °C 30 mi 18.000 ft 270° 270° 8 kt METAR CYUL 231100Z 27008KT 30SM SCT120 OVC180 21/17 A2973 RMK AC3AC5 SLP071 DENSITY ALT 1100FT
06:00
V
21 °C 15 mi 10.000 ft 260° 260° 15 - 21 kt METAR CYUL 231000Z 26015G21KT 15SM FEW025 BKN100 OVC240 21/18 A2972 RMK CF1AC5CS3 CF TR SLP066 DENSITY ALT 1200FT
05:00
V
22 °C 15 mi 13.000 ft 250° 250° 17 - 22 kt METAR CYUL 230900Z 25017G22KT 15SM FEW050 BKN130 OVC230 22/17 A2971 RMK SC2AC3CS3 SLP063 DENSITY ALT 1200FT
04:05
V
21 °C 15 mi 7.000 ft 230° 230° 6 kt METAR CYUL 230805Z 23006KT 15SM SCT050 BKN070 BKN180 21/17 A2970 RMK SC3AC2AC1 DIST LTNGC SLP058 DENSITY ALT 1100FT
03:47
V
21 °C 10 mi 7.000 ft 320° 320° 5 kt METAR CYUL 230747Z 32005KT 10SM -TSRA SCT030CB BKN070 OVC180 21/17 A2970 RMK CB3AC3AC2 SLP058 DENSITY ALT 1100FT
03:34
M
21 °C 8 mi 3.000 ft 320° 320° 11 kt METAR CYUL 230734Z 32011KT 210V330 8SM TSRA BKN030CB BKN050 OVC070 21/17 A2971 RMK CB5SC2AC1 PRESRR SLP062 DENSITY ALT 1100FT
03:00
V
22 °C 15 mi 5.000 ft 220° 220° 7 kt METAR CYUL 230700Z 22007KT 15SM BKN050 BKN130 22/16 A2968 RMK SC5AC2 CU ASOCTD SLP052 DENSITY ALT 1200FT
02:00
V
22 °C 15 mi 6.500 ft 210° 210° 8 kt METAR CYUL 230600Z 21008KT 15SM SCT043 OVC065 22/16 A2970 RMK SC3SC5 SLP059 DENSITY ALT 1300FT
01:00
V
23 °C 15 mi 15.000 ft 220° 220° 10 kt METAR CYUL 230500Z 22010KT 15SM BKN150 OVC230 23/16 A2971 RMK AC7CI1 SLP061 DENSITY ALT 1300FT
00:00
V
23 °C 15 mi 14.000 ft 240° 240° 11 kt METAR CYUL 230400Z 24011KT 15SM BKN140 OVC230 23/17 A2968 RMK AC6CI2 SLP054 DENSITY ALT 1400FT

22 maja 2024

Czas Kod Pogoda Temp. Widoczność Sufit Wiatr METAR/SPECI
23:00
V
23 °C 15 mi 23.000 ft 220° 220° 14 kt METAR CYUL 230300Z 22014KT 15SM SCT190 BKN230 23/17 A2967 RMK AC3CI3 SLP049 DENSITY ALT 1400FT
22:00
V
25 °C 15 mi 25.000 ft 200° 200° 9 - 17 kt METAR CYUL 230200Z 20009G17KT 15SM FEW030 SCT150 BKN250 25/17 A2970 RMK CU1AC4CI3 CU TR CC ASOCTD SLP060 DENSITY ALT 1600FT
21:23
V
22 °C 15 mi 15.000 ft 100° 100° 4 kt METAR CYUL 230123Z 10004KT 15SM FEW040CB SCT075 BKN150 BKN220 22/18 A2969 RMK CB1AC2AS2CS2 CB E LTGCC SLP056 DENSITY ALT 1300FT
21:00
V
23 °C 15 mi 15.000 ft 110° 110° 7 kt METAR CYUL 230100Z 11007KT 15SM TS FEW035CB FEW075 BKN150 BKN220 23/18 A2969 RMK CB1AS1AC3CS2 LTGCC SLP057 DENSITY ALT 1300FT
20:31
V
24 °C 8 mi 7.000 ft Var Var 7 - 34 kt METAR CYUL 230031Z VRB07G34KT 8SM R24R/4000VP6000FT/D -TSRA SCT030CB BKN070 BKN120 OVC220 24/17 A2971 RMK CB3AS2AS2CS1 LTGCC PRESRR SLP064 DENSITY ALT 1500FT
20:27
M
27 °C 3 mi 7.000 ft 260° 260° 22 - 34 kt METAR CYUL 230027Z 26022G34KT 170V310 3SM +RA SCT050CB BKN070 OVC180 27/19 A2971 RMK CB3AC3AS2 PRESRR SLP063 DENSITY ALT 1800FT
20:15
V
28 °C 15 mi 25.000 ft 170° 170° 8 kt METAR CYUL 230015Z 17008KT 15SM TS VCSH FEW060CB FEW110 BKN250 28/20 A2967 RMK CB1AC1CI6 CB TR CB W ACC ASOCT LTGCC SLP050 DENSITY ALT 2000FT
20:00
V
28 °C 15 mi 25.000 ft 180° 180° 7 kt METAR CYUL 230000Z 18007KT 15SM FEW062 FEW120 FEW180 BKN250 28/20 A2968 RMK SC1AC1AC1CI6 SC TR AC TR SLP052 DENSITY ALT 2000FT
19:00
V
29 °C 15 mi 25.000 ft 160° 160° 6 kt METAR CYUL 222300Z 16006KT 15SM FEW060 FEW085 BKN250 29/21 A2968 RMK SC1AC1CI5 SC TR AC TR SLP053 DENSITY ALT 2100FT
18:00
V
30 °C 15 mi - 170° 170° 8 kt METAR CYUL 222200Z 17008KT 15SM FEW060 FEW080 FEW250 30/20 A2969 RMK SC1AC1CI1 SC TR SLP055 DENSITY ALT 2100FT
17:28
V
31 °C 15 mi - 170° 170° 11 kt METAR CYUL 222128Z 17011KT 15SM TS FEW060CB FEW075 FEW250 31/18 A2970 RMK CB1AC1CI1 AC TR CB SE SLP060 DENSITY ALT 2200FT
17:00
V
31 °C 30 mi - 250° 250° 6 kt METAR CYUL 222100Z 25006KT 200V280 30SM FEW045TCU FEW250 31/18 A2970 RMK TCU1CI1 TCU TR TCU SE SLP059 DENSITY ALT 2300FT
16:00
V
30 °C 30 mi - Var Var 5 kt METAR CYUL 222000Z VRB05KT 30SM FEW040 SCT250 30/18 A2972 RMK CU1CI3 CU TR SLP067 DENSITY ALT 2100FT
15:00
V
29 °C 15 mi 25.000 ft 210° 210° 4 kt METAR CYUL 221900Z 21004KT 180V300 15SM FEW040 BKN250 29/18 A2975 RMK CU1CI5 CU TR SLP075 DENSITY ALT 2000FT
14:00
V
28 °C 15 mi 25.000 ft 230° 230° 5 kt METAR CYUL 221800Z 23005KT 180V270 15SM FEW085 BKN250 28/18 A2977 RMK AC1CI6 AC TR SLP084 DENSITY ALT 1900FT
13:00
V
27 °C 15 mi 25.000 ft 220° 220° 7 kt METAR CYUL 221700Z 22007KT 170V230 15SM FEW040 BKN250 27/19 A2979 RMK SC1CI5 SC TR SLP089 DENSITY ALT 1700FT
12:00
V
25 °C 15 mi 25.000 ft 210° 210° 5 kt METAR CYUL 221600Z 21005KT 15SM FEW050 BKN250 25/19 A2980 RMK SC1CI5 SC TR SLP094 DENSITY ALT 1500FT
11:00
V
24 °C 15 mi 25.000 ft 230° 230° 7 kt METAR CYUL 221500Z 23007KT 15SM BKN250 24/19 A2982 RMK CI7 SLP099 DENSITY ALT 1300FT
10:00
V
23 °C 15 mi 25.000 ft 220° 220° 6 kt METAR CYUL 221400Z 22006KT 15SM BKN250 23/19 A2983 RMK CI7 SLP103 DENSITY ALT 1200FT
09:00
V
21 °C 15 mi 25.000 ft 230° 230° 7 kt METAR CYUL 221300Z 23007KT 15SM BKN250 21/18 A2983 RMK CI7 SLP104 DENSITY ALT 1000FT
08:00
V
20 °C 15 mi 25.000 ft 220° 220° 3 kt METAR CYUL 221200Z 22003KT 200V270 15SM FEW035 OVC250 20/17 A2983 RMK SC1CI8 SC TR SLP104 DENSITY ALT 800FT
07:00
V
19 °C 15 mi 25.000 ft Var Var 2 kt METAR CYUL 221100Z VRB02KT 15SM FEW035 OVC250 19/18 A2984 RMK SC1CI7 CF ASOCTD SLP106 DENSITY ALT 700FT
06:00
V
18 °C 15 mi 25.000 ft 160° 160° 3 kt METAR CYUL 221000Z 16003KT 15SM R24R/3000VP6000FT/U MIFG FEW025 OVC250 18/17 A2983 RMK SC2CS6 SLP103 DENSITY ALT 600FT
05:44
V
17 °C 8 mi 15.000 ft 140° 140° 2 kt METAR CYUL 220944Z 14002KT 8SM R24R/2800VP6000FT/U -RA MIFG SCT025 BKN150 OVC250 17/17 A2982 RMK SC3AC3CI3 SLP100 DENSITY ALT 600FT
05:00
V
18 °C 6 mi - 360° 360° 0 kt METAR CYUL 220900Z 00000KT 6SM BR MIFG FEW010 SCT025 18/17 A2983 RMK SF2CF2 MIFG W NW SLP102 DENSITY ALT 600FT
04:00
V
18 °C 15 mi 7.000 ft 010° 010° 2 kt METAR CYUL 220800Z 01002KT 15SM SCT035 BKN070 18/18 A2981 RMK CF3AC3 SLP098 DENSITY ALT 700FT
03:00
V
19 °C 15 mi - 120° 120° 2 kt METAR CYUL 220700Z 12002KT 15SM SCT065 SCT120 19/17 A2981 RMK SC3AC1 SLP095 DENSITY ALT 700FT
02:33
V
19 °C 15 mi - Var Var 2 kt METAR CYUL 220633Z VRB02KT 15SM SCT120 19/18 A2981 RMK AC6 SLP095 DENSITY ALT 800FT
02:00
V
18 °C 15 mi 11.000 ft 360° 360° 0 kt METAR CYUL 220600Z 00000KT 15SM FEW035 BKN110 18/18 A2981 RMK SC2AC5 SLP097 DENSITY ALT 700FT
02:04
V
19 °C 15 mi 12.000 ft 360° 360° 0 kt METAR CYUL 220604Z 00000KT 15SM -RA FEW035 BKN120 19/18 A2981 RMK SC2AC5 SLP096 DENSITY ALT 700FT
01:00
V
19 °C 15 mi 5.500 ft 150° 150° 4 kt METAR CYUL 220500Z 15004KT 15SM BKN055 OVC090 19/18 A2983 RMK SC5AC3 SLP102 DENSITY ALT 700FT
00:51
V
18 °C 15 mi 10.000 ft Var Var 3 kt METAR CYUL 220451Z VRB03KT 15SM FEW035 OVC100 18/18 A2983 RMK SC2AC6 SLP102 DENSITY ALT 700FT
00:18
M
19 °C 8 mi 3.000 ft 200° 200° 5 kt METAR CYUL 220418Z 20005KT 8SM -SHRA BKN030 OVC070 19/18 A2984 RMK SC5AC3 CVCTV CLD EMBD SLP107 DENSITY ALT 700FT
00:07
M
18 °C 6 mi 2.800 ft 230° 230° 4 kt METAR CYUL 220407Z 23004KT 210V290 6SM SHRA BKN028 BKN060 OVC070 18/17 A2985 RMK SC5SC2AC1 CVCTV CLD EMBD SLP110 DENSITY ALT 600FT

21 maja 2024

Czas Kod Pogoda Temp. Widoczność Sufit Wiatr METAR/SPECI
23:00
V
18 °C 15 mi 6.500 ft Var Var 2 kt METAR CYUL 220300Z VRB02KT 15SM FEW035 BKN065 OVC080 18/17 A2985 RMK SC1SC6AC2 SC TR SLP110 DENSITY ALT 700FT
22:00
V
19 °C 15 mi 24.000 ft 190° 190° 6 kt METAR CYUL 220200Z 19006KT 15SM SCT150 BKN240 19/17 A2984 RMK AC4CI3 CC ASOCTD SLP108 DENSITY ALT 700FT
21:27
V
19 °C 15 mi - 150° 150° 3 kt METAR CYUL 220127Z 15003KT 15SM FEW110 FEW150 SCT210 19/17 A2983 RMK AC1AC1CI2 SLP102 DENSITY ALT 700FT
21:00
V
19 °C 15 mi 11.000 ft 160° 160° 7 kt METAR CYUL 220100Z 16007KT 15SM -SHRA FEW060 SCT075 BKN110 19/17 A2984 RMK SC1AC3AC4 SC TR CVCTV CLD EMBD PRESFR SLP105 DENSITY ALT 800FT
20:38
V
20 °C 15 mi 12.000 ft Var Var 2 kt METAR CYUL 220038Z VRB02KT 15SM FEW060 SCT090 BKN120 20/16 A2986 RMK SC1AC3AC3 PRESFR SLP113 DENSITY ALT 800FT
20:07
V
19 °C 10 mi 5.000 ft 280° 280° 15 - 33 kt METAR CYUL 220007Z 28015G33KT 10SM -SHRA SCT035CB BKN050 BKN110 19/16 A2989 RMK CB3SC3AC1 VIS S 3 PRESRR SLP124 DENSITY ALT 700FT
20:04
V
20 °C 10 mi 5.200 ft 290° 290° 22 - 34 kt METAR CYUL 220004Z 29022G34KT 10SM SHRA SCT040CB BKN052 BKN110 20/16 A2989 RMK CB3SC3AC1 PRESRR SLP122 DENSITY ALT 800FT
19:52
V
24 °C 10 mi 5.000 ft 260° 260° 25 - 39 kt METAR CYUL 212352Z 26025G39KT 170V270 10SM -SHRA SCT024CB BKN050 BKN150 BKN250 24/15 A2987 RMK CB3SC2AC1CI1 PRESRR SLP117 DENSITY ALT 1300FT
19:00
V
26 °C 30 mi 25.000 ft 170° 170° 5 kt METAR CYUL 212300Z 17005KT 30SM FEW100 FEW150 SCT180 BKN250 26/16 A2983 RMK AC1AC2AC2CI2 AC TR SLP104 DENSITY ALT 1500FT
18:00
V
26 °C 15 mi 19.000 ft 220° 220° 5 kt METAR CYUL 212200Z 22005KT 15SM FEW080 SCT150 BKN190 BKN250 26/16 A2983 RMK AC1AC3AC2CI2 AC TR SLP102 DENSITY ALT 1600FT
17:00
V
26 °C 15 mi 18.000 ft Var Var 2 kt METAR CYUL 212100Z VRB02KT 15SM FEW090 SCT150 BKN180 BKN250 26/16 A2983 RMK AC1AC3AS1CS2 SLP102 DENSITY ALT 1500FT
16:00
V
26 °C 15 mi 25.000 ft 240° 240° 5 kt METAR CYUL 212000Z 24005KT 210V300 15SM FEW060 FEW100 SCT170 BKN250 26/16 A2984 RMK SC1AC2AC1CI3 SC TR ACC ASOCTD SLP108 DENSITY ALT 1600FT
15:00
V
24 °C 15 mi 10.000 ft 250° 250° 7 kt METAR CYUL 211900Z 25007KT 15SM FEW025 FEW055 BKN100 BKN190 24/17 A2986 RMK SC1SC1AC4AC2 SC TR SLP114 DENSITY ALT 1200FT
14:23
V
24 °C 15 mi 10.000 ft 230° 230° 6 kt METAR CYUL 211823Z 23006KT 210V270 15SM -SHRA FEW050 BKN100 BKN140 OVC180 24/17 A2987 RMK SC1AC4AC1AS2 CVCTV CLD EMBD SLP117 DENSITY ALT 1300FT
14:00
V
23 °C 15 mi 15.000 ft 240° 240° 9 kt METAR CYUL 211800Z 24009KT 15SM FEW062 SCT110 BKN150 OVC190 23/16 A2986 RMK SC1AC3AS2AS2 SLP113 DENSITY ALT 1200FT
13:00
V
22 °C 15 mi 10.000 ft 210° 210° 9 kt METAR CYUL 211700Z 21009KT 15SM -SHRA SCT060 BKN100 BKN160 OVC210 22/17 A2986 RMK SC3AC2AS2CS1 CVCTV CLD EMBD SLP112 DENSITY ALT 1100FT
12:44
V
22 °C 15 mi 11.000 ft 240° 240° 9 kt METAR CYUL 211644Z 24009KT 15SM -SHRA FEW062 BKN110 BKN170 OVC210 22/16 A2986 RMK SC1AC4AS1CS2 SLP115 DENSITY ALT 1100FT
12:00
V
24 °C 15 mi 11.000 ft 230° 230° 7 kt METAR CYUL 211600Z 23007KT 15SM FEW060 BKN110 BKN170 OVC220 24/16 A2986 RMK SC1AC5AS1CS2 SC TR SLP114 DENSITY ALT 1300FT
11:35
V
24 °C 15 mi 15.000 ft 260° 260° 13 kt METAR CYUL 211535Z 26013KT 15SM -SHRA FEW060 SCT110 BKN150 OVC220 24/15 A2988 RMK SC1AS4AC2CS2 SC TR CVCTV CLD EMBD SLP121 DENSITY ALT 1300FT
11:00
V
24 °C 15 mi 21.000 ft 270° 270° 9 - 17 kt METAR CYUL 211500Z 27009G17KT 15SM FEW060 SCT110 BKN210 OVC250 24/16 A2989 RMK SC1AC4CS2CS2 SC TR SLP123 DENSITY ALT 1300FT
10:00
V
23 °C 15 mi 21.000 ft 280° 280° 7 kt METAR CYUL 211400Z 28007KT 15SM FEW065 SCT180 BKN210 OVC250 23/15 A2990 RMK SC1AC2CS3CS2 SLP126 DENSITY ALT 1100FT
09:00
V
21 °C 15 mi 25.000 ft 230° 230° 7 kt METAR CYUL 211300Z 23007KT 15SM BKN250 21/13 A2989 RMK CI7 CS ASOCTD SLP122 DENSITY ALT 900FT
08:00
V
19 °C 15 mi 20.000 ft 230° 230° 6 kt METAR CYUL 211200Z 23006KT 15SM FEW030 OVC200 19/12 A2986 RMK CF1CS8 CF TR SLP115 DENSITY ALT 800FT
07:00
V
19 °C 15 mi 23.000 ft 230° 230° 6 kt METAR CYUL 211100Z 23006KT 15SM FEW030 OVC230 19/11 A2986 RMK CF1CI8 CF TR CS ASOCTD SLP113 DENSITY ALT 700FT
06:00
V
18 °C 15 mi 25.000 ft 220° 220° 6 kt METAR CYUL 211000Z 22006KT 15SM FEW100 OVC250 18/10 A2985 RMK AC2CI6 SLP110 DENSITY ALT 600FT
05:00
V
18 °C 15 mi 10.000 ft 170° 170° 4 kt METAR CYUL 210900Z 17004KT 15SM BKN100 OVC240 18/10 A2984 RMK AC5CS3 SLP108 DENSITY ALT 700FT
04:00
V
19 °C 15 mi 24.000 ft 240° 240° 4 kt METAR CYUL 210800Z 24004KT 15SM OVC240 19/10 A2984 RMK CI8 SLP108 DENSITY ALT 700FT
03:00
V
19 °C 15 mi 25.000 ft 250° 250° 3 kt METAR CYUL 210700Z 25003KT 15SM OVC250 19/10 A2984 RMK CI8 SLP108 DENSITY ALT 700FT
02:00
V
20 °C 15 mi 23.000 ft 230° 230° 4 kt METAR CYUL 210600Z 23004KT 15SM BKN230 20/10 A2984 RMK CI7 SLP106 DENSITY ALT 800FT
Zgłoś zmianę